sensor_id;sensor_type;location;lat;lon;timestamp;pressure;altitude;pressure_sealevel;temperature;humidity
59106;BME280;44891;50.204;8.132;2023-07-13T00:03:13;98206.31;;;16.73;63.63
59106;BME280;44891;50.204;8.132;2023-07-13T00:07:14;98207.41;;;16.28;65.19
59106;BME280;44891;50.204;8.132;2023-07-13T00:11:16;98203.66;;;16.29;65.45
59106;BME280;44891;50.204;8.132;2023-07-13T00:15:20;98205.88;;;16.17;65.94
59106;BME280;44891;50.204;8.132;2023-07-13T00:19:24;98201.72;;;16.06;65.40
59106;BME280;44891;50.204;8.132;2023-07-13T00:23:26;98200.63;;;16.07;66.18
59106;BME280;44891;50.204;8.132;2023-07-13T00:27:28;98202.06;;;16.33;65.56
59106;BME280;44891;50.204;8.132;2023-07-13T00:31:33;98214.53;;;16.33;65.26
59106;BME280;44891;50.204;8.132;2023-07-13T00:35:35;98211.41;;;16.20;66.00
59106;BME280;44891;50.204;8.132;2023-07-13T00:39:38;98202.78;;;16.04;66.32
59106;BME280;44891;50.204;8.132;2023-07-13T00:43:40;98206.34;;;16.24;66.03
59106;BME280;44891;50.204;8.132;2023-07-13T00:47:45;98213.56;;;16.18;65.98
59106;BME280;44891;50.204;8.132;2023-07-13T00:51:48;98222.16;;;15.95;66.48
59106;BME280;44891;50.204;8.132;2023-07-13T00:55:51;98224.66;;;15.61;67.62
59106;BME280;44891;50.204;8.132;2023-07-13T00:59:54;98219.09;;;15.67;67.68
59106;BME280;44891;50.204;8.132;2023-07-13T01:03:59;98218.03;;;15.68;67.43
59106;BME280;44891;50.204;8.132;2023-07-13T01:08:01;98228.59;;;15.73;67.29
59106;BME280;44891;50.204;8.132;2023-07-13T01:12:04;98226.53;;;15.50;68.04
59106;BME280;44891;50.204;8.132;2023-07-13T01:16:11;98228.16;;;15.41;68.89
59106;BME280;44891;50.204;8.132;2023-07-13T01:20:16;98226.00;;;15.53;68.49
59106;BME280;44891;50.204;8.132;2023-07-13T01:24:19;98231.81;;;15.60;68.03
59106;BME280;44891;50.204;8.132;2023-07-13T01:28:24;98227.88;;;15.37;68.72
59106;BME280;44891;50.204;8.132;2023-07-13T01:32:27;98227.06;;;15.47;68.17
59106;BME280;44891;50.204;8.132;2023-07-13T01:36:29;98224.44;;;15.47;68.52
59106;BME280;44891;50.204;8.132;2023-07-13T01:40:33;98224.69;;;15.45;68.48
59106;BME280;44891;50.204;8.132;2023-07-13T01:44:34;98223.41;;;15.28;69.25
59106;BME280;44891;50.204;8.132;2023-07-13T01:48:36;98217.34;;;15.32;69.71
59106;BME280;44891;50.204;8.132;2023-07-13T01:52:38;98223.19;;;14.58;71.46
59106;BME280;44891;50.204;8.132;2023-07-13T01:56:41;98226.00;;;14.15;72.86
59106;BME280;44891;50.204;8.132;2023-07-13T02:00:43;98223.19;;;14.48;71.57
59106;BME280;44891;50.204;8.132;2023-07-13T02:04:45;98224.78;;;14.59;71.89
59106;BME280;44891;50.204;8.132;2023-07-13T02:08:47;98221.63;;;14.67;71.99
59106;BME280;44891;50.204;8.132;2023-07-13T02:12:50;98226.91;;;14.67;71.77
59106;BME280;44891;50.204;8.132;2023-07-13T02:16:52;98221.59;;;14.98;70.25
59106;BME280;44891;50.204;8.132;2023-07-13T02:20:54;98230.34;;;14.67;71.00
59106;BME280;44891;50.204;8.132;2023-07-13T02:24:56;98234.38;;;13.87;73.83
59106;BME280;44891;50.204;8.132;2023-07-13T02:28:59;98237.94;;;14.43;72.25
59106;BME280;44891;50.204;8.132;2023-07-13T02:33:01;98247.66;;;14.12;73.51
59106;BME280;44891;50.204;8.132;2023-07-13T02:37:03;98242.28;;;13.82;74.99
59106;BME280;44891;50.204;8.132;2023-07-13T02:41:05;98241.47;;;13.81;75.74
59106;BME280;44891;50.204;8.132;2023-07-13T02:45:10;98239.19;;;14.05;74.27
59106;BME280;44891;50.204;8.132;2023-07-13T02:49:13;98237.88;;;14.08;74.49
59106;BME280;44891;50.204;8.132;2023-07-13T02:53:15;98244.88;;;13.77;75.34
59106;BME280;44891;50.204;8.132;2023-07-13T02:57:17;98244.00;;;13.56;76.58
59106;BME280;44891;50.204;8.132;2023-07-13T03:01:20;98248.84;;;13.74;75.46
59106;BME280;44891;50.204;8.132;2023-07-13T03:05:22;98249.06;;;13.73;74.92
59106;BME280;44891;50.204;8.132;2023-07-13T03:09:24;98251.50;;;13.84;74.89
59106;BME280;44891;50.204;8.132;2023-07-13T03:13:28;98255.16;;;13.73;75.02
59106;BME280;44891;50.204;8.132;2023-07-13T03:17:31;98252.31;;;13.85;74.67
59106;BME280;44891;50.204;8.132;2023-07-13T03:21:33;98252.78;;;13.72;75.29
59106;BME280;44891;50.204;8.132;2023-07-13T03:25:36;98260.09;;;13.54;76.67
59106;BME280;44891;50.204;8.132;2023-07-13T03:29:38;98249.97;;;13.36;77.18
59106;BME280;44891;50.204;8.132;2023-07-13T03:33:41;98261.06;;;13.06;77.70
59106;BME280;44891;50.204;8.132;2023-07-13T03:37:44;98261.00;;;13.28;77.11
59106;BME280;44891;50.204;8.132;2023-07-13T03:41:51;98264.03;;;13.52;75.83
59106;BME280;44891;50.204;8.132;2023-07-13T03:45:54;98270.00;;;13.37;75.76
59106;BME280;44891;50.204;8.132;2023-07-13T03:49:58;98266.81;;;13.30;76.28
59106;BME280;44891;50.204;8.132;2023-07-13T03:54:00;98266.63;;;13.42;75.76
59106;BME280;44891;50.204;8.132;2023-07-13T04:02:20;98290.47;;;13.62;75.17
59106;BME280;44891;50.204;8.132;2023-07-13T04:06:25;98290.41;;;13.52;75.63
59106;BME280;44891;50.204;8.132;2023-07-13T04:10:28;98290.88;;;13.44;76.02
59106;BME280;44891;50.204;8.132;2023-07-13T04:14:30;98277.47;;;13.50;75.86
59106;BME280;44891;50.204;8.132;2023-07-13T04:18:32;98281.22;;;13.59;75.57
59106;BME280;44891;50.204;8.132;2023-07-13T04:22:35;98288.66;;;13.73;75.08
59106;BME280;44891;50.204;8.132;2023-07-13T04:26:37;98287.75;;;13.94;74.82
59106;BME280;44891;50.204;8.132;2023-07-13T04:30:40;98285.91;;;14.00;74.51
59106;BME280;44891;50.204;8.132;2023-07-13T04:34:41;98294.38;;;14.02;74.30
59106;BME280;44891;50.204;8.132;2023-07-13T04:38:45;98281.94;;;13.97;74.59
59106;BME280;44891;50.204;8.132;2023-07-13T04:42:46;98291.50;;;14.08;74.31
59106;BME280;44891;50.204;8.132;2023-07-13T04:46:49;98288.09;;;14.23;74.18
59106;BME280;44891;50.204;8.132;2023-07-13T04:50:54;98289.97;;;14.38;73.63
59106;BME280;44891;50.204;8.132;2023-07-13T04:54:57;98294.50;;;14.42;73.31
59106;BME280;44891;50.204;8.132;2023-07-13T04:58:59;98290.84;;;14.54;73.76
59106;BME280;44891;50.204;8.132;2023-07-13T05:03:02;98293.53;;;14.74;72.83
59106;BME280;44891;50.204;8.132;2023-07-13T05:07:05;98299.38;;;14.86;72.53
59106;BME280;44891;50.204;8.132;2023-07-13T05:11:08;98298.03;;;15.04;72.01
59106;BME280;44891;50.204;8.132;2023-07-13T05:15:10;98303.84;;;15.16;71.32
59106;BME280;44891;50.204;8.132;2023-07-13T05:19:12;98275.03;;;15.15;71.18
59106;BME280;44891;50.204;8.132;2023-07-13T05:23:14;98314.94;;;15.64;71.13
59106;BME280;44891;50.204;8.132;2023-07-13T05:27:17;98316.19;;;15.92;69.48
59106;BME280;44891;50.204;8.132;2023-07-13T05:31:19;98312.31;;;16.34;69.57
59106;BME280;44891;50.204;8.132;2023-07-13T05:35:21;98312.47;;;16.53;67.71
59106;BME280;44891;50.204;8.132;2023-07-13T05:39:22;98312.88;;;16.80;66.87
59106;BME280;44891;50.204;8.132;2023-07-13T05:43:26;98301.78;;;17.07;66.12
59106;BME280;44891;50.204;8.132;2023-07-13T05:47:28;98313.34;;;17.22;63.41
59106;BME280;44891;50.204;8.132;2023-07-13T05:51:30;98318.94;;;17.49;62.90
59106;BME280;44891;50.204;8.132;2023-07-13T05:55:32;98313.63;;;17.78;60.85
59106;BME280;44891;50.204;8.132;2023-07-13T05:59:35;98312.31;;;18.00;60.66
59106;BME280;44891;50.204;8.132;2023-07-13T06:03:37;98322.22;;;18.18;59.69
59106;BME280;44891;50.204;8.132;2023-07-13T06:07:39;98324.28;;;18.21;58.24
59106;BME280;44891;50.204;8.132;2023-07-13T06:11:41;98318.28;;;18.34;58.16
59106;BME280;44891;50.204;8.132;2023-07-13T06:15:44;98322.81;;;18.53;57.96
59106;BME280;44891;50.204;8.132;2023-07-13T06:19:49;98331.13;;;18.70;57.18
59106;BME280;44891;50.204;8.132;2023-07-13T06:23:51;98334.22;;;18.77;56.51
59106;BME280;44891;50.204;8.132;2023-07-13T06:27:53;98337.44;;;18.74;56.27
59106;BME280;44891;50.204;8.132;2023-07-13T06:31:56;98338.88;;;18.85;56.08
59106;BME280;44891;50.204;8.132;2023-07-13T06:35:58;98337.28;;;19.03;56.36
59106;BME280;44891;50.204;8.132;2023-07-13T06:40:03;98339.22;;;19.16;56.01
59106;BME280;44891;50.204;8.132;2023-07-13T06:44:05;98346.25;;;19.26;55.34
59106;BME280;44891;50.204;8.132;2023-07-13T06:48:09;98350.41;;;19.32;54.56
59106;BME280;44891;50.204;8.132;2023-07-13T06:52:11;98347.25;;;19.30;54.69
59106;BME280;44891;50.204;8.132;2023-07-13T06:56:13;98351.72;;;19.35;54.34
59106;BME280;44891;50.204;8.132;2023-07-13T07:00:15;98346.53;;;19.57;54.52
59106;BME280;44891;50.204;8.132;2023-07-13T07:04:18;98350.00;;;19.58;53.60
59106;BME280;44891;50.204;8.132;2023-07-13T07:08:20;98348.94;;;19.72;53.45
59106;BME280;44891;50.204;8.132;2023-07-13T07:12:22;98349.47;;;19.88;53.76
59106;BME280;44891;50.204;8.132;2023-07-13T07:16:24;98357.34;;;19.93;52.69
59106;BME280;44891;50.204;8.132;2023-07-13T07:20:27;98369.09;;;20.06;51.77
59106;BME280;44891;50.204;8.132;2023-07-13T07:24:31;98371.38;;;19.99;51.44
59106;BME280;44891;50.204;8.132;2023-07-13T07:28:33;98372.78;;;20.10;51.73
59106;BME280;44891;50.204;8.132;2023-07-13T07:32:34;98370.59;;;20.26;51.65
59106;BME280;44891;50.204;8.132;2023-07-13T07:36:38;98375.03;;;20.44;50.80
59106;BME280;44891;50.204;8.132;2023-07-13T07:40:40;98372.66;;;20.43;50.61
59106;BME280;44891;50.204;8.132;2023-07-13T07:44:42;98374.03;;;20.68;49.94
59106;BME280;44891;50.204;8.132;2023-07-13T07:48:44;98367.53;;;20.96;49.63
59106;BME280;44891;50.204;8.132;2023-07-13T07:52:47;98382.22;;;21.07;49.15
59106;BME280;44891;50.204;8.132;2023-07-13T07:56:49;98363.31;;;20.81;48.59
59106;BME280;44891;50.204;8.132;2023-07-13T08:00:50;98372.28;;;20.85;48.84
59106;BME280;44891;50.204;8.132;2023-07-13T08:04:52;98378.81;;;20.93;49.06
59106;BME280;44891;50.204;8.132;2023-07-13T08:08:56;98382.44;;;20.97;48.41
59106;BME280;44891;50.204;8.132;2023-07-13T08:12:57;98380.41;;;20.94;47.82
59106;BME280;44891;50.204;8.132;2023-07-13T08:16:59;98379.34;;;21.04;48.24
59106;BME280;44891;50.204;8.132;2023-07-13T08:21:03;98372.34;;;21.08;47.38
59106;BME280;44891;50.204;8.132;2023-07-13T08:25:06;98371.38;;;21.26;47.71
59106;BME280;44891;50.204;8.132;2023-07-13T08:29:08;98369.00;;;21.02;46.28
59106;BME280;44891;50.204;8.132;2023-07-13T08:33:10;98363.88;;;21.28;46.55
59106;BME280;44891;50.204;8.132;2023-07-13T08:37:12;98375.16;;;21.48;46.56
59106;BME280;44891;50.204;8.132;2023-07-13T08:41:17;98374.44;;;21.64;45.81
59106;BME280;44891;50.204;8.132;2023-07-13T08:45:20;98373.31;;;21.88;46.26
59106;BME280;44891;50.204;8.132;2023-07-13T08:49:22;98370.56;;;21.70;45.53
59106;BME280;44891;50.204;8.132;2023-07-13T08:53:25;98369.63;;;21.75;45.39
59106;BME280;44891;50.204;8.132;2023-07-13T08:57:33;98364.88;;;21.72;45.90
59106;BME280;44891;50.204;8.132;2023-07-13T09:01:45;98362.50;;;22.02;45.42
59106;BME280;44891;50.204;8.132;2023-07-13T09:05:50;98353.31;;;22.16;44.44
59106;BME280;44891;50.204;8.132;2023-07-13T09:09:56;98359.50;;;21.94;43.80
59106;BME280;44891;50.204;8.132;2023-07-13T09:14:06;98369.88;;;21.96;43.47
59106;BME280;44891;50.204;8.132;2023-07-13T09:18:20;98365.28;;;22.19;43.65
59106;BME280;44891;50.204;8.132;2023-07-13T09:22:24;98349.75;;;22.47;43.67
59106;BME280;44891;50.204;8.132;2023-07-13T09:26:29;98358.28;;;22.66;43.41
59106;BME280;44891;50.204;8.132;2023-07-13T09:30:36;98371.03;;;22.52;43.29
59106;BME280;44891;50.204;8.132;2023-07-13T09:34:40;98357.50;;;22.74;43.46
59106;BME280;44891;50.204;8.132;2023-07-13T09:38:42;98357.19;;;22.59;43.28
59106;BME280;44891;50.204;8.132;2023-07-13T09:42:45;98359.84;;;22.50;42.83
59106;BME280;44891;50.204;8.132;2023-07-13T09:46:51;98352.16;;;23.09;43.51
59106;BME280;44891;50.204;8.132;2023-07-13T09:50:54;98352.19;;;23.18;42.57
59106;BME280;44891;50.204;8.132;2023-07-13T09:54:56;98356.22;;;23.41;41.33
59106;BME280;44891;50.204;8.132;2023-07-13T09:59:00;98355.47;;;23.32;42.05
59106;BME280;44891;50.204;8.132;2023-07-13T10:03:04;98354.19;;;23.29;42.16
59106;BME280;44891;50.204;8.132;2023-07-13T10:07:06;98357.84;;;23.16;41.61
59106;BME280;44891;50.204;8.132;2023-07-13T10:11:09;98356.41;;;23.27;41.70
59106;BME280;44891;50.204;8.132;2023-07-13T10:15:13;98355.72;;;23.56;40.53
59106;BME280;44891;50.204;8.132;2023-07-13T10:19:19;98363.13;;;23.68;40.80
59106;BME280;44891;50.204;8.132;2023-07-13T10:23:23;98360.44;;;23.59;40.38
59106;BME280;44891;50.204;8.132;2023-07-13T10:27:29;98360.19;;;23.35;40.30
59106;BME280;44891;50.204;8.132;2023-07-13T10:31:33;98354.78;;;23.61;40.29
59106;BME280;44891;50.204;8.132;2023-07-13T10:35:38;98336.47;;;23.72;39.12
59106;BME280;44891;50.204;8.132;2023-07-13T10:39:40;98353.84;;;23.48;40.25
59106;BME280;44891;50.204;8.132;2023-07-13T10:43:43;98361.31;;;23.25;40.28
59106;BME280;44891;50.204;8.132;2023-07-13T10:47:46;98354.78;;;23.44;40.24
59106;BME280;44891;50.204;8.132;2023-07-13T10:51:50;98354.47;;;23.54;39.55
59106;BME280;44891;50.204;8.132;2023-07-13T10:55:56;98352.13;;;23.44;39.93
59106;BME280;44891;50.204;8.132;2023-07-13T11:00:14;98361.72;;;23.62;40.84
59106;BME280;44891;50.204;8.132;2023-07-13T11:04:17;98356.38;;;23.53;40.20
59106;BME280;44891;50.204;8.132;2023-07-13T11:08:31;98363.13;;;23.59;40.91
59106;BME280;44891;50.204;8.132;2023-07-13T11:12:50;98360.03;;;23.96;40.70
59106;BME280;44891;50.204;8.132;2023-07-13T11:16:52;98349.72;;;24.45;39.76
59106;BME280;44891;50.204;8.132;2023-07-13T11:21:12;98353.78;;;24.51;38.73
59106;BME280;44891;50.204;8.132;2023-07-13T11:25:25;98351.22;;;24.25;39.01
59106;BME280;44891;50.204;8.132;2023-07-13T11:29:32;98348.41;;;24.51;38.55
59106;BME280;44891;50.204;8.132;2023-07-13T11:33:49;98346.97;;;24.24;38.66
59106;BME280;44891;50.204;8.132;2023-07-13T11:37:52;98352.91;;;24.38;38.62
59106;BME280;44891;50.204;8.132;2023-07-13T11:41:56;98354.56;;;24.72;37.87
59106;BME280;44891;50.204;8.132;2023-07-13T11:45:59;98352.00;;;25.17;37.87
59106;BME280;44891;50.204;8.132;2023-07-13T11:50:00;98340.88;;;25.07;37.49
59106;BME280;44891;50.204;8.132;2023-07-13T11:54:03;98353.34;;;24.90;37.81
59106;BME280;44891;50.204;8.132;2023-07-13T11:58:08;98351.25;;;24.96;37.54
59106;BME280;44891;50.204;8.132;2023-07-13T12:02:14;98341.38;;;25.00;37.34
59106;BME280;44891;50.204;8.132;2023-07-13T12:06:21;98344.69;;;24.85;38.17
59106;BME280;44891;50.204;8.132;2023-07-13T12:10:26;98351.81;;;24.60;39.39
59106;BME280;44891;50.204;8.132;2023-07-13T12:14:33;98359.75;;;24.56;39.63
59106;BME280;44891;50.204;8.132;2023-07-13T12:18:35;98352.88;;;24.67;39.45
59106;BME280;44891;50.204;8.132;2023-07-13T12:22:37;98360.38;;;24.95;39.41
59106;BME280;44891;50.204;8.132;2023-07-13T12:26:38;98354.75;;;24.88;39.14
59106;BME280;44891;50.204;8.132;2023-07-13T12:30:42;98367.56;;;24.40;39.44
59106;BME280;44891;50.204;8.132;2023-07-13T12:34:51;98362.47;;;24.48;40.77
59106;BME280;44891;50.204;8.132;2023-07-13T12:38:53;98359.41;;;24.58;40.19
59106;BME280;44891;50.204;8.132;2023-07-13T12:42:55;98372.19;;;24.82;40.18
59106;BME280;44891;50.204;8.132;2023-07-13T12:47:02;98376.41;;;24.71;40.78
59106;BME280;44891;50.204;8.132;2023-07-13T12:51:08;98381.81;;;24.62;41.08
59106;BME280;44891;50.204;8.132;2023-07-13T12:55:12;98376.13;;;24.84;40.93
59106;BME280;44891;50.204;8.132;2023-07-13T12:59:16;98383.59;;;25.00;39.85
59106;BME280;44891;50.204;8.132;2023-07-13T13:03:24;98382.41;;;24.88;40.44
59106;BME280;44891;50.204;8.132;2023-07-13T13:07:27;98386.97;;;24.46;41.22
59106;BME280;44891;50.204;8.132;2023-07-13T13:11:30;98401.38;;;23.95;41.35
59106;BME280;44891;50.204;8.132;2023-07-13T13:15:32;98400.22;;;23.66;41.95
59106;BME280;44891;50.204;8.132;2023-07-13T13:19:35;98406.34;;;23.58;42.38
59106;BME280;44891;50.204;8.132;2023-07-13T13:23:37;98404.75;;;23.74;42.42
59106;BME280;44891;50.204;8.132;2023-07-13T13:27:39;98402.53;;;23.85;40.86
59106;BME280;44891;50.204;8.132;2023-07-13T13:31:42;98399.78;;;24.02;41.09
59106;BME280;44891;50.204;8.132;2023-07-13T13:35:45;98401.69;;;24.40;40.54
59106;BME280;44891;50.204;8.132;2023-07-13T13:39:47;98404.41;;;24.61;40.48
59106;BME280;44891;50.204;8.132;2023-07-13T13:43:49;98408.31;;;24.04;40.40
59106;BME280;44891;50.204;8.132;2023-07-13T13:47:51;98404.28;;;23.55;41.34
59106;BME280;44891;50.204;8.132;2023-07-13T13:51:55;98416.59;;;23.56;41.86
59106;BME280;44891;50.204;8.132;2023-07-13T13:55:56;98414.06;;;23.77;41.41
59106;BME280;44891;50.204;8.132;2023-07-13T14:00:00;98408.66;;;23.94;40.54
59106;BME280;44891;50.204;8.132;2023-07-13T14:04:05;98418.03;;;24.18;39.87
59106;BME280;44891;50.204;8.132;2023-07-13T14:08:10;98415.38;;;24.09;39.48
59106;BME280;44891;50.204;8.132;2023-07-13T14:12:14;98410.28;;;24.25;40.50
59106;BME280;44891;50.204;8.132;2023-07-13T14:16:17;98410.69;;;23.97;39.84
59106;BME280;44891;50.204;8.132;2023-07-13T14:20:19;98415.56;;;24.04;40.03
59106;BME280;44891;50.204;8.132;2023-07-13T14:24:24;98416.16;;;24.09;40.04
59106;BME280;44891;50.204;8.132;2023-07-13T14:28:26;98412.41;;;24.02;40.08
59106;BME280;44891;50.204;8.132;2023-07-13T14:32:29;98414.69;;;23.74;40.14
59106;BME280;44891;50.204;8.132;2023-07-13T14:36:32;98422.09;;;23.77;40.82
59106;BME280;44891;50.204;8.132;2023-07-13T14:40:35;98415.31;;;23.79;40.37
59106;BME280;44891;50.204;8.132;2023-07-13T14:44:37;98419.25;;;23.82;40.33
59106;BME280;44891;50.204;8.132;2023-07-13T14:48:39;98416.91;;;23.72;40.79
59106;BME280;44891;50.204;8.132;2023-07-13T14:52:42;98415.16;;;23.84;40.41
59106;BME280;44891;50.204;8.132;2023-07-13T14:56:45;98408.69;;;23.85;40.98
59106;BME280;44891;50.204;8.132;2023-07-13T15:00:47;98411.22;;;23.56;40.44
59106;BME280;44891;50.204;8.132;2023-07-13T15:04:50;98418.66;;;23.59;40.68
59106;BME280;44891;50.204;8.132;2023-07-13T15:08:52;98418.16;;;23.57;40.82
59106;BME280;44891;50.204;8.132;2023-07-13T15:12:58;98418.03;;;23.45;40.33
59106;BME280;44891;50.204;8.132;2023-07-13T15:17:00;98419.75;;;23.58;40.40
59106;BME280;44891;50.204;8.132;2023-07-13T15:21:02;98412.81;;;23.74;40.86
59106;BME280;44891;50.204;8.132;2023-07-13T15:25:07;98405.06;;;23.81;40.31
59106;BME280;44891;50.204;8.132;2023-07-13T15:29:14;98414.66;;;23.82;40.19
59106;BME280;44891;50.204;8.132;2023-07-13T15:33:17;98403.00;;;23.87;40.04
59106;BME280;44891;50.204;8.132;2023-07-13T15:37:20;98403.00;;;24.25;39.65
59106;BME280;44891;50.204;8.132;2023-07-13T15:41:23;98400.94;;;24.60;39.45
59106;BME280;44891;50.204;8.132;2023-07-13T15:45:26;98396.69;;;24.59;39.17
59106;BME280;44891;50.204;8.132;2023-07-13T15:49:28;98396.47;;;23.97;39.57
59106;BME280;44891;50.204;8.132;2023-07-13T15:53:31;98403.63;;;24.22;39.45
59106;BME280;44891;50.204;8.132;2023-07-13T15:57:33;98381.03;;;24.32;39.54
59106;BME280;44891;50.204;8.132;2023-07-13T16:01:37;98391.47;;;24.33;39.70
59106;BME280;44891;50.204;8.132;2023-07-13T16:05:39;98393.22;;;24.21;40.01
59106;BME280;44891;50.204;8.132;2023-07-13T16:09:41;98388.81;;;24.16;40.39
59106;BME280;44891;50.204;8.132;2023-07-13T16:13:43;98390.53;;;23.91;40.67
59106;BME280;44891;50.204;8.132;2023-07-13T16:17:47;98391.63;;;23.81;40.64
59106;BME280;44891;50.204;8.132;2023-07-13T16:21:50;98383.97;;;23.71;41.39
59106;BME280;44891;50.204;8.132;2023-07-13T16:25:52;98383.56;;;23.90;41.35
59106;BME280;44891;50.204;8.132;2023-07-13T16:29:54;98378.25;;;24.20;40.63
59106;BME280;44891;50.204;8.132;2023-07-13T16:33:57;98386.69;;;24.01;40.61
59106;BME280;44891;50.204;8.132;2023-07-13T16:38:00;98385.66;;;23.84;40.55
59106;BME280;44891;50.204;8.132;2023-07-13T16:42:02;98374.66;;;24.07;40.20
59106;BME280;44891;50.204;8.132;2023-07-13T16:46:04;98385.34;;;24.15;40.78
59106;BME280;44891;50.204;8.132;2023-07-13T16:50:12;98374.34;;;24.08;40.16
59106;BME280;44891;50.204;8.132;2023-07-13T16:54:15;98376.66;;;24.19;40.55
59106;BME280;44891;50.204;8.132;2023-07-13T16:58:19;98378.84;;;24.55;40.29
59106;BME280;44891;50.204;8.132;2023-07-13T17:02:28;98379.38;;;24.48;39.56
59106;BME280;44891;50.204;8.132;2023-07-13T17:06:33;98376.69;;;24.48;39.92
59106;BME280;44891;50.204;8.132;2023-07-13T17:10:34;98375.97;;;24.30;40.25
59106;BME280;44891;50.204;8.132;2023-07-13T17:14:36;98372.81;;;24.28;40.13
59106;BME280;44891;50.204;8.132;2023-07-13T17:18:40;98372.72;;;24.16;40.76
59106;BME280;44891;50.204;8.132;2023-07-13T17:22:43;98372.88;;;24.20;40.59
59106;BME280;44891;50.204;8.132;2023-07-13T17:26:46;98379.91;;;23.95;40.79
59106;BME280;44891;50.204;8.132;2023-07-13T17:30:49;98380.66;;;23.66;40.93
59106;BME280;44891;50.204;8.132;2023-07-13T17:34:51;98378.13;;;23.52;41.77
59106;BME280;44891;50.204;8.132;2023-07-13T17:38:54;98372.44;;;23.53;42.05
59106;BME280;44891;50.204;8.132;2023-07-13T17:42:57;98382.69;;;23.60;41.66
59106;BME280;44891;50.204;8.132;2023-07-13T17:46:59;98375.44;;;23.69;41.35
59106;BME280;44891;50.204;8.132;2023-07-13T17:51:07;98381.91;;;23.68;41.66
59106;BME280;44891;50.204;8.132;2023-07-13T17:55:13;98383.19;;;23.62;41.15
59106;BME280;44891;50.204;8.132;2023-07-13T17:59:15;98380.16;;;23.55;41.26
59106;BME280;44891;50.204;8.132;2023-07-13T18:03:19;98393.59;;;23.46;41.54
59106;BME280;44891;50.204;8.132;2023-07-13T18:07:22;98395.50;;;23.46;41.99
59106;BME280;44891;50.204;8.132;2023-07-13T18:11:29;98397.22;;;23.42;41.93
59106;BME280;44891;50.204;8.132;2023-07-13T18:15:32;98398.53;;;23.18;42.40
59106;BME280;44891;50.204;8.132;2023-07-13T18:19:36;98390.78;;;23.17;42.04
59106;BME280;44891;50.204;8.132;2023-07-13T18:23:39;98391.13;;;22.98;42.49
59106;BME280;44891;50.204;8.132;2023-07-13T18:27:42;98400.88;;;22.94;42.54
59106;BME280;44891;50.204;8.132;2023-07-13T18:31:44;98388.06;;;22.82;42.56
59106;BME280;44891;50.204;8.132;2023-07-13T18:35:46;98401.59;;;22.68;43.23
59106;BME280;44891;50.204;8.132;2023-07-13T18:39:49;98392.59;;;22.64;43.38
59106;BME280;44891;50.204;8.132;2023-07-13T18:43:53;98391.81;;;22.55;43.95
59106;BME280;44891;50.204;8.132;2023-07-13T18:47:55;98395.25;;;22.47;44.74
59106;BME280;44891;50.204;8.132;2023-07-13T18:51:59;98393.44;;;22.16;45.75
59106;BME280;44891;50.204;8.132;2023-07-13T18:56:00;98396.38;;;21.75;45.64
59106;BME280;44891;50.204;8.132;2023-07-13T19:00:04;98400.00;;;21.48;46.47
59106;BME280;44891;50.204;8.132;2023-07-13T19:08:22;98406.97;;;20.99;47.06
59106;BME280;44891;50.204;8.132;2023-07-13T19:12:25;98416.41;;;20.83;47.91
59106;BME280;44891;50.204;8.132;2023-07-13T19:16:29;98420.00;;;20.64;48.53
59106;BME280;44891;50.204;8.132;2023-07-13T19:20:31;98420.19;;;20.68;49.65
59106;BME280;44891;50.204;8.132;2023-07-13T19:24:33;98430.50;;;20.47;50.15
59106;BME280;44891;50.204;8.132;2023-07-13T19:28:36;98426.97;;;20.33;49.94
59106;BME280;44891;50.204;8.132;2023-07-13T19:32:41;98435.59;;;20.30;50.17
59106;BME280;44891;50.204;8.132;2023-07-13T19:36:44;98437.94;;;20.04;50.97
59106;BME280;44891;50.204;8.132;2023-07-13T19:40:46;98434.50;;;20.17;51.45
59106;BME280;44891;50.204;8.132;2023-07-13T19:44:48;98451.19;;;20.23;51.43
59106;BME280;44891;50.204;8.132;2023-07-13T19:48:52;98455.81;;;20.17;51.90
59106;BME280;44891;50.204;8.132;2023-07-13T19:52:53;98465.69;;;20.03;52.47
59106;BME280;44891;50.204;8.132;2023-07-13T19:56:56;98464.28;;;19.92;52.66
59106;BME280;44891;50.204;8.132;2023-07-13T20:00:58;98470.94;;;19.56;53.27
59106;BME280;44891;50.204;8.132;2023-07-13T20:05:01;98471.19;;;19.41;53.11
59106;BME280;44891;50.204;8.132;2023-07-13T20:09:13;98477.34;;;18.99;54.38
59106;BME280;44891;50.204;8.132;2023-07-13T20:13:16;98482.69;;;19.18;54.82
59106;BME280;44891;50.204;8.132;2023-07-13T20:17:24;98482.09;;;19.21;54.93
59106;BME280;44891;50.204;8.132;2023-07-13T20:21:29;98483.97;;;19.20;54.84
59106;BME280;44891;50.204;8.132;2023-07-13T20:25:31;98486.84;;;19.05;54.59
59106;BME280;44891;50.204;8.132;2023-07-13T20:29:33;98487.16;;;18.56;55.94
59106;BME280;44891;50.204;8.132;2023-07-13T20:33:35;98492.25;;;18.52;56.12
59106;BME280;44891;50.204;8.132;2023-07-13T20:37:38;98494.47;;;18.45;57.14
59106;BME280;44891;50.204;8.132;2023-07-13T20:41:40;98504.97;;;18.31;57.50
59106;BME280;44891;50.204;8.132;2023-07-13T20:45:42;98501.75;;;18.34;57.39
59106;BME280;44891;50.204;8.132;2023-07-13T20:49:43;98497.81;;;18.03;58.29
59106;BME280;44891;50.204;8.132;2023-07-13T20:53:47;98508.47;;;17.98;58.05
59106;BME280;44891;50.204;8.132;2023-07-13T20:57:48;98505.72;;;18.08;58.18
59106;BME280;44891;50.204;8.132;2023-07-13T21:01:50;98515.56;;;18.07;58.14
59106;BME280;44891;50.204;8.132;2023-07-13T21:05:52;98513.25;;;17.96;58.50
59106;BME280;44891;50.204;8.132;2023-07-13T21:09:56;98510.69;;;17.85;59.13
59106;BME280;44891;50.204;8.132;2023-07-13T21:13:58;98518.06;;;17.93;59.23
59106;BME280;44891;50.204;8.132;2023-07-13T21:18:00;98519.25;;;17.77;59.59
59106;BME280;44891;50.204;8.132;2023-07-13T21:22:03;98531.78;;;17.66;60.03
59106;BME280;44891;50.204;8.132;2023-07-13T21:26:06;98531.72;;;17.37;60.42
59106;BME280;44891;50.204;8.132;2023-07-13T21:30:12;98537.88;;;17.23;61.25
59106;BME280;44891;50.204;8.132;2023-07-13T21:34:14;98533.50;;;16.93;61.61
59106;BME280;44891;50.204;8.132;2023-07-13T21:38:18;98543.91;;;16.74;62.07